Time;durP1;ratioP1;P1;durP2;ratioP2;P2;SDS_P1;SDS_P2;PMS_P1;PMS_P2;Temp;Humidity;BMP_temperature;BMP_pressure;BME280_temperature;BME280_humidity;BME280_pressure;Samples;Min_cycle;Max_cycle;Signal;HPM_P1;HPM_P2
2022/03/06 00:00:47;;;;;;;23.07;17.67;;;;;;;;;;5088596;28;20412;-74
2022/03/06 00:03:13;;;;;;;23.48;18.15;;;;;;;;;;5104023;28;20413;-73
2022/03/06 00:05:40;;;;;;;23.55;17.65;;;;;;;;;;5109263;28;21478;-75
2022/03/06 00:08:06;;;;;;;23.55;17.40;;;;;;;;;;5089949;28;20412;-74
2022/03/06 00:10:32;;;;;;;23.90;17.90;;;;;;;;;;5100174;28;20924;-74
2022/03/06 00:12:58;;;;;;;23.88;17.63;;;;;;;;;;5062815;28;20429;-75
2022/03/06 00:15:26;;;;;;;22.27;16.80;;;;;;;;;;5102168;28;20412;-75
2022/03/06 00:17:53;;;;;;;22.92;17.05;;;;;;;;;;5099748;28;20422;-75
2022/03/06 00:20:19;;;;;;;22.20;17.40;;;;;;;;;;5106175;28;20413;-75
2022/03/06 00:22:45;;;;;;;22.42;16.95;;;;;;;;;;5099648;28;20410;-75
2022/03/06 00:25:11;;;;;;;24.95;17.52;;;;;;;;;;5087658;28;20416;-75
2022/03/06 00:27:37;;;;;;;23.85;16.98;;;;;;;;;;5085079;28;20421;-75
2022/03/06 00:30:04;;;;;;;22.83;17.20;;;;;;;;;;5096350;28;20414;-75
2022/03/06 00:32:30;;;;;;;23.63;16.65;;;;;;;;;;5096566;28;20471;-75
2022/03/06 00:34:56;;;;;;;21.33;15.98;;;;;;;;;;5099076;28;20426;-75
2022/03/06 00:37:22;;;;;;;21.08;15.75;;;;;;;;;;5103158;28;20422;-75
2022/03/06 00:39:48;;;;;;;19.60;15.82;;;;;;;;;;5083715;28;20457;-75
2022/03/06 00:42:14;;;;;;;20.88;15.27;;;;;;;;;;5099355;28;20417;-75
2022/03/06 00:44:40;;;;;;;21.08;14.88;;;;;;;;;;5103509;28;20483;-75
2022/03/06 00:47:07;;;;;;;20.48;15.43;;;;;;;;;;5084729;28;20466;-75
2022/03/06 00:49:33;;;;;;;18.85;14.30;;;;;;;;;;5086020;28;20414;-75
2022/03/06 00:52:00;;;;;;;17.73;14.40;;;;;;;;;;5096235;28;20452;-75
2022/03/06 00:54:26;;;;;;;20.63;14.48;;;;;;;;;;5086985;28;20460;-75
2022/03/06 00:56:52;;;;;;;18.10;13.73;;;;;;;;;;5098478;28;20766;-75
2022/03/06 00:59:18;;;;;;;18.05;13.63;;;;;;;;;;5098919;28;20490;-75
2022/03/06 01:01:44;;;;;;;18.05;13.00;;;;;;;;;;5105648;28;20780;-75
2022/03/06 01:04:10;;;;;;;17.58;12.93;;;;;;;;;;5092131;28;20456;-75
2022/03/06 01:06:36;;;;;;;17.50;12.73;;;;;;;;;;5096936;28;20414;-75
2022/03/06 01:09:03;;;;;;;17.98;12.90;;;;;;;;;;5098437;28;20420;-75
2022/03/06 01:11:30;;;;;;;16.70;11.85;;;;;;;;;;5084082;28;20424;-75
2022/03/06 01:13:56;;;;;;;15.95;11.88;;;;;;;;;;5101741;28;20444;-75
2022/03/06 01:16:22;;;;;;;16.05;11.77;;;;;;;;;;5099067;28;20404;-75
2022/03/06 01:18:48;;;;;;;17.52;11.85;;;;;;;;;;5096295;28;20429;-75
2022/03/06 01:21:14;;;;;;;15.45;11.85;;;;;;;;;;5099308;28;20975;-75
2022/03/06 01:23:40;;;;;;;17.23;11.95;;;;;;;;;;5088289;28;20415;-75
2022/03/06 01:26:06;;;;;;;16.48;11.25;;;;;;;;;;5085290;28;20913;-75
2022/03/06 01:28:32;;;;;;;14.20;10.75;;;;;;;;;;5070474;28;20803;-75
2022/03/06 01:30:58;;;;;;;16.65;11.50;;;;;;;;;;5090558;28;20429;-75
2022/03/06 01:33:25;;;;;;;14.27;11.10;;;;;;;;;;5094608;28;20423;-75
2022/03/06 01:35:51;;;;;;;17.15;11.02;;;;;;;;;;5075014;28;20907;-75
2022/03/06 01:38:17;;;;;;;16.07;11.23;;;;;;;;;;5080724;28;20965;-75
2022/03/06 01:40:43;;;;;;;15.40;10.85;;;;;;;;;;5081293;28;20412;-75
2022/03/06 01:43:09;;;;;;;14.97;11.00;;;;;;;;;;5082383;28;20497;-74
2022/03/06 01:45:36;;;;;;;16.05;11.60;;;;;;;;;;5097925;28;20420;-75
2022/03/06 01:48:03;;;;;;;16.40;11.40;;;;;;;;;;5075862;28;20952;-75
2022/03/06 01:50:33;;;;;;;15.13;10.88;;;;;;;;;;5083090;28;20423;-75
2022/03/06 01:53:02;;;;;;;15.25;10.57;;;2.20;99.90;;;;;;5101446;28;20423;-75
2022/03/06 01:55:29;;;;;;;16.00;10.88;;;;;;;;;;5097809;28;20416;-74
2022/03/06 01:57:58;;;;;;;15.02;10.75;;;2.30;99.90;;;;;;5107671;28;20461;-75
2022/03/06 02:00:26;;;;;;;14.13;10.90;;;;;;;;;;5100547;28;20419;-75
2022/03/06 02:02:52;;;;;;;14.15;10.35;;;;;;;;;;5101666;28;20416;-75
2022/03/06 02:05:18;;;;;;;15.07;10.82;;;;;;;;;;5084983;28;20772;-75
2022/03/06 02:07:44;;;;;;;16.20;11.23;;;;;;;;;;5099375;28;20443;-75
2022/03/06 02:10:11;;;;;;;13.93;10.60;;;;;;;;;;5083419;28;20465;-75
2022/03/06 02:12:37;;;;;;;14.88;10.88;;;;;;;;;;5105205;28;20464;-74
2022/03/06 02:15:05;;;;;;;15.55;11.02;;;;;;;;;;5098463;28;20471;-75
2022/03/06 02:17:32;;;;;;;14.90;11.30;;;;;;;;;;5089190;28;20412;-75
2022/03/06 02:19:59;;;;;;;15.55;11.18;;;;;;;;;;5082767;28;20463;-75
2022/03/06 02:22:30;;;;;;;15.63;11.33;;;;;;;;;;5108924;28;21000;-75
2022/03/06 02:24:56;;;;;;;14.80;11.25;;;;;;;;;;5086172;28;20423;-75
2022/03/06 02:27:22;;;;;;;17.00;11.50;;;;;;;;;;5099409;28;20499;-75
2022/03/06 02:29:48;;;;;;;15.07;11.40;;;;;;;;;;5106285;28;20499;-75
2022/03/06 02:32:16;;;;;;;14.98;11.05;;;;;;;;;;5101132;28;20414;-75
2022/03/06 02:34:43;;;;;;;17.08;10.82;;;;;;;;;;5082927;28;20445;-75
2022/03/06 02:37:09;;;;;;;14.60;10.70;;;;;;;;;;5102316;28;21020;-75
2022/03/06 02:39:35;;;;;;;14.55;10.88;;;;;;;;;;5099563;28;20428;-75
2022/03/06 02:42:02;;;;;;;16.15;11.20;;;;;;;;;;5077854;28;20417;-75
2022/03/06 02:44:28;;;;;;;16.25;11.07;;;;;;;;;;5106463;28;20413;-75
2022/03/06 02:46:55;;;;;;;16.63;10.93;;;;;;;;;;5105892;28;20511;-75
2022/03/06 02:49:21;;;;;;;13.35;9.88;;;;;;;;;;5104303;28;20456;-75
2022/03/06 02:51:47;;;;;;;13.77;9.95;;;;;;;;;;5082016;28;20436;-75
2022/03/06 02:54:14;;;;;;;14.60;10.25;;;;;;;;;;5069776;28;20430;-75
2022/03/06 02:56:41;;;;;;;14.05;9.50;;;;;;;;;;5098710;28;20815;-75
2022/03/06 02:59:08;;;;;;;15.88;9.90;;;;;;;;;;5086547;28;20757;-75
2022/03/06 03:01:41;;;;;;;14.32;9.65;;;;;;;;;;5111275;28;20408;-75
2022/03/06 03:04:11;;;;;;;14.40;9.23;;;;;;;;;;5082213;28;20424;-75
2022/03/06 03:06:37;;;;;;;13.07;8.93;;;;;;;;;;5106361;28;20418;-75
2022/03/06 03:09:07;;;;;;;13.43;8.23;;;;;;;;;;5099991;28;20763;-75
2022/03/06 03:11:34;;;;;;;12.80;8.60;;;;;;;;;;5101371;28;20477;-75
2022/03/06 03:14:01;;;;;;;13.73;8.27;;;1.90;99.90;;;;;;5083762;28;20420;-75
2022/03/06 03:16:27;;;;;;;13.77;7.50;;;;;;;;;;5084695;28;20412;-78
2022/03/06 03:18:53;;;;;;;11.73;7.53;;;;;;;;;;5077082;28;20412;-79
2022/03/06 03:21:19;;;;;;;11.37;7.30;;;;;;;;;;5090808;28;20561;-79
2022/03/06 03:23:45;;;;;;;11.30;6.88;;;;;;;;;;5099246;28;20415;-79
2022/03/06 03:26:11;;;;;;;11.10;6.83;;;;;;;;;;5103740;28;20466;-79
2022/03/06 03:28:37;;;;;;;11.88;6.90;;;;;;;;;;5102774;28;20479;-78
2022/03/06 03:31:03;;;;;;;11.10;7.03;;;;;;;;;;5098873;28;20979;-78
2022/03/06 03:33:29;;;;;;;10.63;6.25;;;;;;;;;;5080042;28;20427;-78
2022/03/06 03:35:56;;;;;;;12.47;7.00;;;;;;;;;;5105351;28;20491;-78
2022/03/06 03:38:22;;;;;;;10.10;6.63;;;;;;;;;;5108450;28;20974;-79
2022/03/06 03:40:49;;;;;;;10.07;6.90;;;;;;;;;;5094950;28;20765;-78
2022/03/06 03:43:15;;;;;;;10.43;6.90;;;;;;;;;;5098377;28;20412;-78
2022/03/06 03:45:41;;;;;;;9.40;6.33;;;;;;;;;;5099983;28;20427;-78
2022/03/06 03:48:07;;;;;;;9.35;6.40;;;;;;;;;;5101365;28;20428;-78
2022/03/06 03:50:33;;;;;;;10.27;6.50;;;;;;;;;;5101210;28;20416;-78
2022/03/06 03:52:59;;;;;;;11.00;6.68;;;;;;;;;;5103683;28;20418;-78
2022/03/06 03:55:25;;;;;;;10.15;6.20;;;;;;;;;;5090152;28;20920;-78
2022/03/06 03:57:51;;;;;;;10.90;6.70;;;;;;;;;;5108524;28;20497;-78
2022/03/06 04:00:17;;;;;;;10.73;7.00;;;;;;;;;;5100508;28;20420;-78
2022/03/06 04:02:43;;;;;;;10.65;6.70;;;;;;;;;;5106444;28;20761;-78
2022/03/06 04:05:09;;;;;;;11.23;6.70;;;;;;;;;;5085732;28;20420;-78
2022/03/06 04:07:35;;;;;;;10.88;6.82;;;;;;;;;;5103869;28;20416;-78
2022/03/06 04:10:02;;;;;;;11.93;7.32;;;;;;;;;;5085220;28;20420;-78
2022/03/06 04:12:28;;;;;;;10.07;6.88;;;;;;;;;;5106693;28;20479;-78
2022/03/06 04:14:54;;;;;;;12.05;7.32;;;;;;;;;;5060988;28;20428;-78
2022/03/06 04:17:20;;;;;;;11.25;7.30;;;;;;;;;;5104095;28;20435;-78
2022/03/06 04:19:46;;;;;;;11.02;7.22;;;;;;;;;;5080044;28;20435;-78
2022/03/06 04:22:12;;;;;;;12.48;7.32;;;;;;;;;;5097113;28;20413;-78
2022/03/06 04:24:38;;;;;;;11.85;7.13;;;;;;;;;;5094861;28;20428;-78
2022/03/06 04:27:04;;;;;;;10.03;7.27;;;;;;;;;;5102501;28;20444;-78
2022/03/06 04:29:30;;;;;;;10.68;7.30;;;;;;;;;;5111587;28;20424;-78
2022/03/06 04:31:56;;;;;;;10.50;7.45;;;;;;;;;;5105758;28;20416;-78
2022/03/06 04:34:22;;;;;;;10.45;6.93;;;;;;;;;;5107390;28;20427;-78
2022/03/06 04:36:49;;;;;;;11.45;7.07;;;;;;;;;;5103602;28;20767;-78
2022/03/06 04:39:15;;;;;;;13.15;7.28;;;;;;;;;;5081875;28;20505;-79
2022/03/06 04:41:41;;;;;;;10.38;7.03;;;;;;;;;;5081723;28;20416;-78
2022/03/06 04:44:07;;;;;;;11.32;7.07;;;;;;;;;;5075272;28;20413;-78
2022/03/06 04:46:34;;;;;;;10.45;6.60;;;;;;;;;;5101923;28;20485;-78
2022/03/06 04:49:00;;;;;;;10.77;6.97;;;;;;;;;;5095431;28;20428;-78
2022/03/06 04:51:26;;;;;;;11.07;7.00;;;;;;;;;;5101051;28;20776;-79
2022/03/06 04:53:52;;;;;;;12.02;7.40;;;;;;;;;;5086862;28;20752;-78
2022/03/06 04:56:18;;;;;;;9.18;6.32;;;;;;;;;;5061593;28;20411;-79
2022/03/06 04:58:44;;;;;;;9.07;6.32;;;;;;;;;;5094406;28;20443;-78
2022/03/06 05:01:10;;;;;;;12.00;6.70;;;;;;;;;;5081983;28;20412;-79
2022/03/06 05:03:36;;;;;;;10.32;6.47;;;;;;;;;;5089001;28;20423;-78
2022/03/06 05:06:03;;;;;;;12.82;6.80;;;;;;;;;;5073747;28;20442;-78
2022/03/06 05:08:29;;;;;;;10.38;6.78;;;;;;;;;;5080033;28;20975;-77
2022/03/06 05:10:55;;;;;;;12.20;7.03;;;;;;;;;;5090268;28;20419;-78
2022/03/06 05:13:22;;;;;;;12.55;7.10;;;;;;;;;;5098783;28;20475;-78
2022/03/06 05:15:48;;;;;;;10.10;6.40;;;;;;;;;;5096793;28;20467;-78
2022/03/06 05:18:14;;;;;;;10.77;6.50;;;;;;;;;;5078146;28;20418;-78
2022/03/06 05:20:40;;;;;;;10.50;6.95;;;;;;;;;;5098544;28;20412;-78
2022/03/06 05:23:06;;;;;;;10.05;6.38;;;;;;;;;;5108294;27;20419;-78
2022/03/06 05:25:33;;;;;;;10.05;6.47;;;;;;;;;;5103966;28;20416;-79
2022/03/06 05:27:59;;;;;;;9.82;6.90;;;;;;;;;;5098819;28;20472;-78
2022/03/06 05:30:25;;;;;;;11.30;7.00;;;;;;;;;;5094737;28;20914;-78
2022/03/06 05:32:51;;;;;;;9.95;6.63;;;;;;;;;;5104096;28;20412;-77
2022/03/06 05:35:17;;;;;;;10.63;6.20;;;;;;;;;;5100411;28;20427;-77
2022/03/06 05:37:43;;;;;;;12.32;6.82;;;;;;;;;;5100473;28;20413;-77
2022/03/06 05:40:10;;;;;;;12.23;6.47;;;;;;;;;;5079155;28;20418;-77
2022/03/06 05:42:36;;;;;;;10.18;6.20;;;;;;;;;;5096514;28;20521;-77
2022/03/06 05:45:02;;;;;;;10.95;6.30;;;;;;;;;;5097167;28;20428;-77
2022/03/06 05:47:28;;;;;;;11.38;6.50;;;;;;;;;;5105353;28;20513;-77
2022/03/06 05:49:54;;;;;;;10.60;6.30;;;;;;;;;;5108210;28;20447;-77
2022/03/06 05:52:20;;;;;;;10.45;6.22;;;;;;;;;;5097823;28;20939;-77
2022/03/06 05:54:47;;;;;;;12.25;6.72;;;;;;;;;;5081333;28;20420;-77
2022/03/06 05:57:13;;;;;;;11.35;6.40;;;;;;;;;;5099438;28;20421;-77
2022/03/06 05:59:39;;;;;;;10.63;6.55;;;;;;;;;;5089433;28;20425;-77
2022/03/06 06:02:05;;;;;;;13.23;6.65;;;;;;;;;;5076955;28;20951;-77
2022/03/06 06:04:31;;;;;;;10.32;5.88;;;;;;;;;;5090052;28;20783;-77
2022/03/06 06:06:57;;;;;;;9.73;5.70;;;;;;;;;;5095481;28;20743;-77
2022/03/06 06:09:23;;;;;;;12.27;6.70;;;;;;;;;;5101977;28;21227;-78
2022/03/06 06:11:49;;;;;;;10.18;5.80;;;;;;;;;;5086918;28;20428;-77
2022/03/06 06:14:15;;;;;;;11.45;6.55;;;;;;;;;;5097489;28;20474;-77
2022/03/06 06:16:41;;;;;;;10.27;6.00;;;;;;;;;;5098674;28;21004;-77
2022/03/06 06:19:07;;;;;;;12.30;6.57;;;;;;;;;;5102926;28;20465;-77
2022/03/06 06:21:33;;;;;;;11.30;6.47;;;;;;;;;;5086981;28;20420;-77
2022/03/06 06:23:59;;;;;;;10.88;6.35;;;;;;;;;;5094792;28;20486;-77
2022/03/06 06:26:26;;;;;;;9.80;6.45;;;;;;;;;;5096747;28;20423;-77
2022/03/06 06:29:00;;;;;;;9.85;6.25;;;;;;;;;;5079396;28;20935;-78
2022/03/06 06:31:26;;;;;;;9.48;6.00;;;;;;;;;;5092838;28;20553;-77
2022/03/06 06:33:52;;;;;;;11.73;6.32;;;;;;;;;;5096565;28;20931;-77
2022/03/06 06:36:19;;;;;;;10.40;6.20;;;;;;;;;;5103153;28;20412;-77
2022/03/06 06:38:45;;;;;;;12.53;6.70;;;;;;;;;;5096975;28;20542;-78
2022/03/06 06:41:11;;;;;;;10.95;6.32;;;;;;;;;;5081095;28;20453;-78
2022/03/06 06:43:37;;;;;;;12.00;6.95;;;;;;;;;;5096323;28;20415;-78
2022/03/06 06:46:03;;;;;;;10.40;6.68;;;;;;;;;;5099708;28;20416;-78
2022/03/06 06:48:29;;;;;;;10.43;6.68;;;;;;;;;;5100154;28;20408;-78
2022/03/06 06:50:55;;;;;;;11.25;6.88;;;;;;;;;;5082165;28;20446;-78
2022/03/06 06:53:21;;;;;;;10.40;6.90;;;;;;;;;;5093820;28;20818;-78
2022/03/06 06:55:47;;;;;;;10.63;6.70;;;;;;;;;;5070582;28;20435;-78
2022/03/06 06:58:13;;;;;;;11.33;7.00;;;;;;;;;;5097329;28;20790;-78
2022/03/06 07:00:40;;;;;;;10.95;6.63;;;;;;;;;;5097919;28;20425;-77
2022/03/06 07:03:06;;;;;;;10.40;6.33;;;;;;;;;;5081257;28;21235;-77
2022/03/06 07:05:32;;;;;;;10.35;6.05;;;;;;;;;;5099909;28;20407;-77
2022/03/06 07:07:58;;;;;;;8.97;5.90;;;;;;;;;;5093149;28;20417;-77
2022/03/06 07:10:24;;;;;;;9.20;5.60;;;;;;;;;;5088800;28;20950;-77
2022/03/06 07:12:53;;;;;;;9.93;5.57;;;;;;;;;;5102838;28;20444;-77
2022/03/06 07:15:19;;;;;;;8.57;5.40;;;;;;;;;;5088743;28;20515;-77
2022/03/06 07:17:45;;;;;;;7.57;5.33;;;;;;;;;;5099253;28;20469;-77
2022/03/06 07:20:12;;;;;;;9.38;5.38;;;;;;;;;;5100620;28;20410;-77
2022/03/06 07:22:38;;;;;;;9.02;5.50;;;;;;;;;;5098087;28;20803;-77
2022/03/06 07:25:04;;;;;;;7.93;5.20;;;;;;;;;;5081755;28;20503;-77
2022/03/06 07:27:30;;;;;;;10.47;5.87;;;;;;;;;;5097401;28;20414;-77
2022/03/06 07:29:56;;;;;;;9.27;6.25;;;;;;;;;;5104427;28;20408;-77
2022/03/06 07:32:23;;;;;;;8.83;5.53;;;;;;;;;;5100569;28;20416;-77
2022/03/06 07:34:49;;;;;;;8.18;5.10;;;;;;;;;;5099850;28;20424;-77
2022/03/06 07:37:15;;;;;;;8.05;4.55;;;;;;;;;;5096559;28;20495;-77
2022/03/06 07:39:43;;;;;;;6.95;4.28;;;;;;;;;;5097960;28;20847;-77
2022/03/06 07:42:09;;;;;;;8.68;4.47;;;;;;;;;;5103161;28;20908;-76
2022/03/06 07:44:35;;;;;;;5.85;4.03;;;;;;;;;;5105793;28;20408;-76
2022/03/06 07:47:02;;;;;;;7.13;4.07;;;;;;;;;;5081166;28;20415;-77
2022/03/06 07:49:28;;;;;;;7.22;3.70;;;;;;;;;;5081302;28;20808;-77
2022/03/06 07:51:54;;;;;;;6.50;4.25;;;;;;;;;;5093297;28;20421;-77
2022/03/06 07:54:20;;;;;;;7.32;3.70;;;;;;;;;;5087155;28;20966;-75
2022/03/06 07:56:46;;;;;;;6.28;3.80;;;;;;;;;;5107911;28;20416;-75
2022/03/06 07:59:13;;;;;;;6.63;3.75;;;;;;;;;;5102977;28;20448;-75
2022/03/06 08:01:39;;;;;;;7.93;3.70;;;;;;;;;;5084196;28;20416;-74
2022/03/06 08:04:05;;;;;;;6.85;3.88;;;;;;;;;;5085742;28;20424;-74
2022/03/06 08:06:31;;;;;;;6.87;3.47;;;;;;;;;;5097095;28;20553;-74
2022/03/06 08:08:57;;;;;;;6.68;3.70;;;;;;;;;;5095175;28;20907;-74
2022/03/06 08:11:23;;;;;;;5.25;3.28;;;;;;;;;;5103765;28;20805;-74
2022/03/06 08:13:49;;;;;;;5.88;3.17;;;;;;;;;;5074364;28;20420;-74
2022/03/06 08:16:15;;;;;;;5.03;3.25;;;;;;;;;;5099076;28;20408;-75
2022/03/06 08:18:41;;;;;;;5.20;3.30;;;;;;;;;;5102442;28;20462;-74
2022/03/06 08:21:08;;;;;;;6.83;3.40;;;;;;;;;;5100342;28;20915;-74
2022/03/06 08:23:34;;;;;;;7.22;3.00;;;;;;;;;;5083021;28;20551;-74
2022/03/06 08:26:00;;;;;;;7.13;2.90;;;;;;;;;;5098533;28;20450;-72
2022/03/06 08:28:26;;;;;;;5.40;3.30;;;;;;;;;;5100014;28;20437;-73
2022/03/06 08:30:52;;;;;;;5.38;3.40;;;;;;;;;;5092433;28;20422;-73
2022/03/06 08:33:18;;;;;;;5.60;3.10;;;;;;;;;;5105442;28;20428;-73
2022/03/06 08:35:44;;;;;;;5.70;3.42;;;;;;;;;;5084740;28;20436;-74
2022/03/06 08:38:10;;;;;;;5.53;3.30;;;;;;;;;;5095894;28;20576;-73
2022/03/06 08:40:36;;;;;;;6.17;3.47;;;;;;;;;;5082479;28;20430;-74
2022/03/06 08:43:02;;;;;;;5.03;3.00;;;;;;;;;;5100272;28;20527;-74
2022/03/06 08:45:28;;;;;;;5.28;3.00;;;;;;;;;;5078460;28;20813;-74
2022/03/06 08:47:55;;;;;;;4.20;2.92;;;;;;;;;;5100608;28;20764;-74
2022/03/06 08:50:21;;;;;;;4.90;2.97;;;;;;;;;;5078457;28;20472;-74
2022/03/06 08:52:47;;;;;;;4.70;2.85;;;;;;;;;;5085164;28;20405;-74
2022/03/06 08:55:13;;;;;;;5.35;2.90;;;;;;;;;;5092104;28;20425;-74
2022/03/06 08:57:39;;;;;;;5.45;3.08;;;;;;;;;;5082816;28;20408;-74
2022/03/06 09:00:06;;;;;;;5.63;3.20;;;;;;;;;;5087488;28;20949;-74
2022/03/06 09:02:32;;;;;;;6.05;2.85;;;;;;;;;;5095527;28;20447;-74
2022/03/06 09:04:58;;;;;;;6.43;3.00;;;;;;;;;;5102580;28;20423;-74
2022/03/06 09:07:24;;;;;;;5.45;2.83;;;;;;;;;;5099216;28;20430;-74
2022/03/06 09:09:50;;;;;;;4.78;2.80;;;;;;;;;;5084287;28;20422;-74
2022/03/06 09:12:18;;;;;;;4.43;2.70;;;;;;;;;;5104976;28;20536;-75
2022/03/06 09:14:44;;;;;;;5.07;2.80;;;;;;;;;;5096863;28;20453;-75
2022/03/06 09:17:10;;;;;;;4.50;2.60;;;;;;;;;;5094640;28;20515;-75
2022/03/06 09:19:36;;;;;;;5.45;2.80;;;;;;;;;;5086087;28;20422;-75
2022/03/06 09:22:02;;;;;;;5.30;2.53;;;;;;;;;;5102411;28;20954;-75
2022/03/06 09:24:29;;;;;;;5.20;2.80;;;;;;;;;;5097364;28;20420;-75
2022/03/06 09:26:55;;;;;;;4.47;2.58;;;;;;;;;;5085529;28;20413;-75
2022/03/06 09:29:21;;;;;;;5.22;2.63;;;;;;;;;;5073854;28;20452;-76
2022/03/06 09:31:47;;;;;;;4.70;2.85;;;;;;;;;;5094087;28;20482;-75
2022/03/06 09:34:13;;;;;;;6.80;2.92;;;;;;;;;;5102033;28;20432;-75
2022/03/06 09:36:39;;;;;;;5.28;2.80;;;;;;;;;;5093769;28;20413;-75
2022/03/06 09:39:06;;;;;;;5.50;3.05;;;;;;;;;;5102517;28;20419;-75
2022/03/06 09:41:32;;;;;;;5.47;2.83;;;;;;;;;;5103667;28;20530;-75
2022/03/06 09:43:58;;;;;;;4.78;2.80;;;;;;;;;;5081492;28;20764;-75
2022/03/06 09:46:24;;;;;;;6.60;3.20;;;;;;;;;;5098457;28;20930;-76
2022/03/06 09:48:51;;;;;;;6.72;2.80;;;;;;;;;;5106065;28;20420;-75
2022/03/06 09:51:18;;;;;;;5.45;2.97;;;;;;;;;;5096797;28;20761;-75
2022/03/06 09:53:44;;;;;;;4.90;2.80;;;;;;;;;;5084109;28;20431;-75
2022/03/06 09:56:10;;;;;;;4.47;2.90;;;;;;;;;;5087498;28;20408;-75
2022/03/06 09:58:36;;;;;;;7.25;4.25;;;;;;;;;;5077326;28;20778;-75
2022/03/06 10:01:02;;;;;;;5.30;2.80;;;;;;;;;;5065615;28;20473;-75
2022/03/06 10:03:30;;;;;;;5.53;3.10;;;;;;;;;;5092995;28;20422;-74
2022/03/06 10:05:56;;;;;;;4.03;2.90;;;;;;;;;;5077922;28;20477;-74
2022/03/06 10:08:26;;;;;;;7.10;3.90;;;;;;;;;;5104185;28;20428;-74
2022/03/06 10:10:52;;;;;;;6.85;3.45;;;;;;;;;;5089244;28;20498;-74
2022/03/06 10:13:20;;;;;;;5.97;3.20;;;;;;;;;;5083510;28;20802;-74
2022/03/06 10:15:58;;;;;;;6.15;3.65;;;;;;;;;;5101236;28;21924;-73
2022/03/06 10:18:24;;;;;;;7.25;4.13;;;;;;;;;;5092288;28;20410;-74
2022/03/06 10:20:50;;;;;;;5.40;3.33;;;;;;;;;;5087229;28;20419;-74
2022/03/06 10:23:26;;;;;;;6.40;3.20;;;;;;;;;;5074609;28;20825;-74
2022/03/06 10:26:04;;;;;;;6.43;3.13;;;;;;;;;;5076000;28;20418;-73
2022/03/06 10:28:31;;;;;;;7.88;2.97;;;;;;;;;;5103031;28;20452;-73
2022/03/06 10:31:04;;;;;;;6.32;3.20;;;;;;;;;;5098841;28;20423;-78
2022/03/06 10:33:30;;;;;;;6.88;3.22;;;;;;;;;;5081761;28;20470;-73
2022/03/06 10:35:58;;;;;;;4.88;3.00;;;;;;;;;;5101733;28;20408;-73
2022/03/06 10:38:27;;;;;;;5.78;3.28;;;6.60;99.90;;;;;;5086705;28;20412;-72
2022/03/06 10:40:54;;;;;;;5.30;3.03;;;;;;;;;;5090342;28;20432;-73
2022/03/06 10:43:32;;;;;;;6.57;3.42;;;6.70;99.90;;;;;;5096195;28;20404;-73
2022/03/06 10:46:13;;;;;;;6.40;3.13;;;;;;;;;;5124902;27;20416;-73
2022/03/06 10:48:41;;;;;;;6.32;3.55;;;7.30;99.90;;;;;;5105191;28;20823;-74
2022/03/06 10:51:08;;;;;;;5.60;3.20;;;;;;;;;;5107463;28;20499;-74
2022/03/06 10:53:34;;;;;;;6.15;3.53;;;;;;;;;;5102853;28;20421;-74
2022/03/06 10:56:12;;;;;;;7.40;3.42;;;6.90;99.90;;;;;;5101029;28;20802;-74
2022/03/06 10:58:41;;;;;;;5.82;3.38;;;6.90;99.90;;;;;;5086113;28;20415;-73
2022/03/06 11:01:07;;;;;;;6.97;3.20;;;;;;;;;;5101633;28;20420;-73
2022/03/06 11:03:35;;;;;;;7.25;3.22;;;6.90;99.90;;;;;;5081736;28;20420;-74
2022/03/06 11:06:02;;;;;;;7.35;3.30;;;;;;;;;;5100404;28;20431;-75
2022/03/06 11:08:28;;;;;;;4.80;2.95;;;;;;;;;;5105312;28;20409;-75
2022/03/06 11:10:54;;;;;;;6.75;3.30;;;;;;;;;;5100014;28;20493;-74
2022/03/06 11:13:21;;;;;;;6.72;3.47;;;;;;;;;;5081119;28;20427;-75
2022/03/06 11:15:47;;;;;;;6.77;3.40;;;;;;;;;;5087342;28;20444;-75
2022/03/06 11:18:13;;;;;;;5.63;3.25;;;;;;;;;;5090652;28;20412;-74
2022/03/06 11:20:40;;;;;;;6.32;3.15;;;;;;;;;;5100221;28;20497;-74
2022/03/06 11:23:22;;;;;;;6.03;3.10;;;7.10;99.90;;;;;;5105539;28;20933;-74
2022/03/06 11:25:58;;;;;;;6.20;3.17;;;;;;;;;;5102994;28;20416;-74
2022/03/06 11:28:37;;;;;;;6.20;3.22;;;;;;;;;;5108998;28;20424;-74
2022/03/06 11:31:03;;;;;;;7.45;3.22;;;;;;;;;;5108246;28;20424;-73
2022/03/06 11:33:29;;;;;;;5.13;2.95;;;;;;;;;;5085016;28;20487;-74
2022/03/06 11:35:56;;;;;;;6.47;3.20;;;;;;;;;;5107395;28;20409;-73
2022/03/06 11:38:22;;;;;;;5.30;3.20;;;;;;;;;;5104823;28;20447;-74
2022/03/06 11:40:50;;;;;;;6.13;3.60;;;;;;;;;;5103775;28;20426;-74
2022/03/06 11:43:37;;;;;;;7.82;3.30;;;;;;;;;;5085003;28;20412;-74
2022/03/06 11:46:16;;;;;;;6.63;3.22;;;;;;;;;;5108668;28;20404;-74
2022/03/06 11:48:45;;;;;;;6.43;3.35;;;;;;;;;;5088823;28;20418;-75
2022/03/06 11:51:17;;;;;;;7.35;3.22;;;;;;;;;;5097548;28;20946;-74
2022/03/06 11:53:47;;;;;;;6.50;3.25;;;;;;;;;;5087551;28;20422;-74
2022/03/06 11:56:32;;;;;;;6.25;3.45;;;;;;;;;;5096028;28;20506;-74
2022/03/06 11:59:10;;;;;;;7.90;3.35;;;7.60;99.90;;;;;;5101388;28;20425;-75
2022/03/06 12:01:47;;;;;;;5.27;3.20;;;7.40;99.90;;;;;;5104886;28;20423;-74
2022/03/06 12:04:13;;;;;;;5.95;3.35;;;;;;;;;;5089869;28;20416;-75
2022/03/06 12:06:40;;;;;;;6.85;3.03;;;;;;;;;;5079107;28;20413;-75
2022/03/06 12:09:13;;;;;;;7.38;3.95;;;;;;;;;;5086704;28;20765;-74
2022/03/06 12:11:40;;;;;;;6.60;3.30;;;;;;;;;;5102642;28;20616;-74
2022/03/06 12:14:21;;;;;;;5.75;3.00;;;;;;;;;;5101223;28;20414;-74
2022/03/06 12:17:16;;;;;;;5.60;3.22;;;;;;;;;;5102477;28;20419;-73
2022/03/06 12:19:45;;;;;;;5.60;3.40;;;;;;;;;;5078668;28;20756;-74
2022/03/06 12:22:13;;;;;;;6.18;3.60;;;7.70;99.90;;;;;;5125149;27;20436;-73
2022/03/06 12:24:40;;;;;;;7.72;3.55;;;;;;;;;;5103760;28;20422;-73
2022/03/06 12:27:10;;;;;;;5.97;3.20;;;;;;;;;;5078400;28;20426;-73
2022/03/06 12:29:49;;;;;;;5.85;3.30;;;;;;;;;;5101395;28;20423;-72
2022/03/06 12:32:27;;;;;;;5.33;3.30;;;;;;;;;;5087031;28;20867;-73
2022/03/06 12:34:57;;;;;;;6.80;3.15;;;;;;;;;;5100437;28;20919;-73
2022/03/06 12:37:28;;;;;;;5.20;3.00;;;8.00;99.90;;;;;;5098564;28;20561;-73
2022/03/06 12:39:55;;;;;;;5.85;3.08;;;8.40;99.90;;;;;;5101142;28;20472;-73
2022/03/06 12:42:25;;;;;;;5.50;3.00;;;;;;;;;;5100754;28;20499;-73
2022/03/06 12:44:57;;;;;;;6.38;3.50;;;8.00;99.90;;;;;;5076749;28;20770;-72
2022/03/06 12:47:23;;;;;;;5.47;3.05;;;;;;;;;;5100711;28;20408;-72
2022/03/06 12:49:50;;;;;;;5.10;3.17;;;;;;;;;;5081704;28;20508;-73
2022/03/06 12:52:17;;;;;;;6.38;3.60;;;;;;;;;;5097567;28;20431;-72
2022/03/06 12:54:45;;;;;;;6.05;3.40;;;;;;;;;;5083958;28;20452;-72
2022/03/06 12:57:11;;;;;;;7.37;4.00;;;;;;;;;;5108226;28;20416;-72
2022/03/06 12:59:41;;;;;;;5.70;3.03;;;;;;;;;;5100179;28;20417;-72
2022/03/06 13:02:08;;;;;;;5.37;2.90;;;;;;;;;;5106138;28;20504;-73
2022/03/06 13:04:35;;;;;;;5.18;3.20;;;;;;;;;;5087584;28;20475;-74
2022/03/06 13:07:01;;;;;;;4.97;2.65;;;;;;;;;;5084937;28;20539;-75
2022/03/06 13:09:34;;;;;;;5.38;2.97;;;8.20;99.90;;;;;;5082039;28;20414;-74
2022/03/06 13:12:00;;;;;;;6.07;3.17;;;;;;;;;;5099631;28;20489;-75
2022/03/06 13:14:37;;;;;;;6.95;3.03;;;;;;;;;;5086462;28;20427;-74
2022/03/06 13:17:06;;;;;;;6.32;2.95;;;8.40;99.90;;;;;;5098351;28;20449;-75
2022/03/06 13:19:46;;;;;;;13.27;3.70;;;;;;;;;;5100449;28;20974;-74
2022/03/06 13:22:22;;;;;;;5.73;3.23;;;;;;;;;;5099593;28;20409;-74
2022/03/06 13:24:53;;;;;;;5.82;2.80;;;8.70;99.90;;;;;;5101717;28;20428;-74
2022/03/06 13:27:32;;;;;;;5.60;2.80;;;8.80;99.90;;;;;;5102998;28;20424;-74
2022/03/06 13:30:20;;;;;;;6.05;2.85;;;8.60;99.90;;;;;;5097219;28;20931;-74
2022/03/06 13:32:48;;;;;;;4.53;2.70;;;8.30;99.90;;;;;;5097995;28;20420;-74
2022/03/06 13:35:36;;;;;;;5.22;3.00;;;;;;;;;;5098840;28;20417;-75
2022/03/06 13:38:27;;;;;;;5.75;2.70;;;8.30;99.90;;;;;;5105452;28;20919;-74
2022/03/06 13:40:57;;;;;;;5.40;2.90;;;7.90;99.90;;;;;;5098997;28;20909;-74
2022/03/06 13:43:38;;;;;;;5.88;2.63;;;7.90;99.90;;;;;;5081145;28;20416;-74
2022/03/06 13:46:05;;;;;;;5.82;2.80;;;;;;;;;;5081115;28;20424;-74
2022/03/06 13:48:35;;;;;;;5.65;2.90;;;7.90;99.90;;;;;;5096148;28;20420;-73
2022/03/06 13:51:01;;;;;;;5.10;2.90;;;;;;;;;;5102454;28;20422;-73
2022/03/06 13:53:29;;;;;;;5.32;2.85;;;;;;;;;;5101657;28;20470;-74
2022/03/06 13:56:03;;;;;;;5.57;2.83;;;7.50;99.90;;;;;;5101415;28;20425;-74
2022/03/06 13:58:39;;;;;;;5.50;2.95;;;;;;;;;;5088454;28;20948;-74
2022/03/06 14:01:06;;;;;;;6.53;3.10;;;;;;;;;;5101235;28;20415;-74
2022/03/06 14:03:32;;;;;;;6.07;2.92;;;;;;;;;;5095397;28;20428;-74
2022/03/06 14:05:59;;;;;;;8.35;3.25;;;;;;;;;;5093195;28;20422;-78
2022/03/06 14:08:25;;;;;;;7.50;3.20;;;;;;;;;;5094015;28;20416;-78
2022/03/06 14:10:57;;;;;;;5.53;3.05;;;7.60;99.90;;;;;;5104853;28;20507;-78
2022/03/06 14:13:25;;;;;;;6.05;3.13;;;;;;;;;;5079135;28;20416;-79
2022/03/06 14:15:53;;;;;;;6.53;3.13;;;7.60;99.90;;;;;;5104204;28;21191;-77
2022/03/06 14:18:37;;;;;;;6.50;2.90;;;;;;;;;;5102633;28;20445;-77
2022/03/06 14:21:10;;;;;;;5.97;3.10;;;;;;;;;;5105080;28;20473;-77
2022/03/06 14:23:36;;;;;;;5.93;3.15;;;;;;;;;;5083290;28;20422;-77
2022/03/06 14:26:02;;;;;;;6.03;2.90;;;;;;;;;;5108093;28;20523;-76